sensor_id;sensor_type;location;lat;lon;timestamp;temperature;humidity
55211;DHT22;41082;52.822;6.666;2024-02-26T00:01:28;4.00;99.90
55211;DHT22;41082;52.822;6.666;2024-02-26T00:03:56;4.00;99.90
55211;DHT22;41082;52.822;6.666;2024-02-26T00:06:25;4.00;99.90
55211;DHT22;41082;52.822;6.666;2024-02-26T00:08:50;4.00;99.90
55211;DHT22;41082;52.822;6.666;2024-02-26T00:11:16;4.00;99.90
55211;DHT22;41082;52.822;6.666;2024-02-26T00:13:41;4.00;99.90
55211;DHT22;41082;52.822;6.666;2024-02-26T00:16:07;4.00;99.90
55211;DHT22;41082;52.822;6.666;2024-02-26T00:18:33;4.00;99.90
55211;DHT22;41082;52.822;6.666;2024-02-26T00:20:59;4.00;99.90
55211;DHT22;41082;52.822;6.666;2024-02-26T00:23:26;4.10;99.90
55211;DHT22;41082;52.822;6.666;2024-02-26T00:25:52;4.00;99.90
55211;DHT22;41082;52.822;6.666;2024-02-26T00:28:17;4.00;99.90
55211;DHT22;41082;52.822;6.666;2024-02-26T00:30:45;4.10;99.90
55211;DHT22;41082;52.822;6.666;2024-02-26T00:33:11;4.10;99.90
55211;DHT22;41082;52.822;6.666;2024-02-26T00:35:37;4.00;99.90
55211;DHT22;41082;52.822;6.666;2024-02-26T00:38:02;4.00;99.90
55211;DHT22;41082;52.822;6.666;2024-02-26T00:40:29;4.10;99.90
55211;DHT22;41082;52.822;6.666;2024-02-26T00:42:55;4.00;99.90
55211;DHT22;41082;52.822;6.666;2024-02-26T00:45:20;4.00;99.90
55211;DHT22;41082;52.822;6.666;2024-02-26T00:47:46;4.00;99.90
55211;DHT22;41082;52.822;6.666;2024-02-26T00:50:13;4.00;99.90
55211;DHT22;41082;52.822;6.666;2024-02-26T00:52:38;4.00;99.90
55211;DHT22;41082;52.822;6.666;2024-02-26T00:55:05;4.00;99.90
55211;DHT22;41082;52.822;6.666;2024-02-26T00:57:31;4.00;99.90
55211;DHT22;41082;52.822;6.666;2024-02-26T00:59:57;4.00;99.90
55211;DHT22;41082;52.822;6.666;2024-02-26T01:02:22;4.00;99.90
55211;DHT22;41082;52.822;6.666;2024-02-26T01:04:48;4.00;99.90
55211;DHT22;41082;52.822;6.666;2024-02-26T01:07:14;4.00;99.90
55211;DHT22;41082;52.822;6.666;2024-02-26T01:09:40;4.00;99.90
55211;DHT22;41082;52.822;6.666;2024-02-26T01:12:05;4.00;99.90
55211;DHT22;41082;52.822;6.666;2024-02-26T01:14:31;4.00;99.90
55211;DHT22;41082;52.822;6.666;2024-02-26T01:16:57;4.00;99.90
55211;DHT22;41082;52.822;6.666;2024-02-26T01:19:22;4.00;99.90
55211;DHT22;41082;52.822;6.666;2024-02-26T01:21:48;4.00;99.90
55211;DHT22;41082;52.822;6.666;2024-02-26T01:24:14;4.00;99.90
55211;DHT22;41082;52.822;6.666;2024-02-26T01:26:40;4.00;99.90
55211;DHT22;41082;52.822;6.666;2024-02-26T01:29:06;4.00;99.90
55211;DHT22;41082;52.822;6.666;2024-02-26T01:31:32;4.00;99.90
55211;DHT22;41082;52.822;6.666;2024-02-26T01:33:57;4.00;99.90
55211;DHT22;41082;52.822;6.666;2024-02-26T01:36:23;4.00;99.90
55211;DHT22;41082;52.822;6.666;2024-02-26T01:38:49;4.00;99.90
55211;DHT22;41082;52.822;6.666;2024-02-26T01:41:14;4.00;99.90
55211;DHT22;41082;52.822;6.666;2024-02-26T01:43:40;4.00;99.90
55211;DHT22;41082;52.822;6.666;2024-02-26T01:46:10;4.00;99.90
55211;DHT22;41082;52.822;6.666;2024-02-26T01:48:37;3.90;99.90
55211;DHT22;41082;52.822;6.666;2024-02-26T01:51:03;4.00;99.90
55211;DHT22;41082;52.822;6.666;2024-02-26T01:53:29;4.00;99.90
55211;DHT22;41082;52.822;6.666;2024-02-26T01:55:55;4.00;99.90
55211;DHT22;41082;52.822;6.666;2024-02-26T01:58:21;3.90;99.90
55211;DHT22;41082;52.822;6.666;2024-02-26T02:00:46;4.00;99.90
55211;DHT22;41082;52.822;6.666;2024-02-26T02:03:12;4.00;99.90
55211;DHT22;41082;52.822;6.666;2024-02-26T02:05:38;4.00;99.90
55211;DHT22;41082;52.822;6.666;2024-02-26T02:08:08;4.00;99.90
55211;DHT22;41082;52.822;6.666;2024-02-26T02:10:34;4.00;99.90
55211;DHT22;41082;52.822;6.666;2024-02-26T02:13:00;4.00;99.90
55211;DHT22;41082;52.822;6.666;2024-02-26T02:15:26;4.10;99.90
55211;DHT22;41082;52.822;6.666;2024-02-26T02:17:52;4.10;99.90
55211;DHT22;41082;52.822;6.666;2024-02-26T02:20:18;4.10;99.90
55211;DHT22;41082;52.822;6.666;2024-02-26T02:22:47;4.00;99.90
55211;DHT22;41082;52.822;6.666;2024-02-26T02:25:13;4.00;99.90
55211;DHT22;41082;52.822;6.666;2024-02-26T02:27:39;4.00;99.90
55211;DHT22;41082;52.822;6.666;2024-02-26T02:30:06;4.00;99.90
55211;DHT22;41082;52.822;6.666;2024-02-26T02:32:32;4.00;99.90
55211;DHT22;41082;52.822;6.666;2024-02-26T02:34:59;4.00;99.90
55211;DHT22;41082;52.822;6.666;2024-02-26T02:37:24;4.00;99.90
55211;DHT22;41082;52.822;6.666;2024-02-26T02:39:50;4.00;99.90
55211;DHT22;41082;52.822;6.666;2024-02-26T02:42:16;4.00;99.90
55211;DHT22;41082;52.822;6.666;2024-02-26T02:44:41;4.00;99.90
55211;DHT22;41082;52.822;6.666;2024-02-26T02:47:07;4.00;99.90
55211;DHT22;41082;52.822;6.666;2024-02-26T02:49:32;4.00;99.90
55211;DHT22;41082;52.822;6.666;2024-02-26T02:51:58;4.00;99.90
55211;DHT22;41082;52.822;6.666;2024-02-26T02:54:24;4.00;99.90
55211;DHT22;41082;52.822;6.666;2024-02-26T02:56:49;4.00;99.90
55211;DHT22;41082;52.822;6.666;2024-02-26T02:59:15;4.00;99.90
55211;DHT22;41082;52.822;6.666;2024-02-26T03:01:40;4.00;99.90
55211;DHT22;41082;52.822;6.666;2024-02-26T03:04:06;3.90;99.90
55211;DHT22;41082;52.822;6.666;2024-02-26T03:06:32;4.00;99.90
55211;DHT22;41082;52.822;6.666;2024-02-26T03:08:57;4.00;99.90
55211;DHT22;41082;52.822;6.666;2024-02-26T03:11:23;3.90;99.90
55211;DHT22;41082;52.822;6.666;2024-02-26T03:13:49;4.00;99.90
55211;DHT22;41082;52.822;6.666;2024-02-26T03:16:14;4.00;99.90
55211;DHT22;41082;52.822;6.666;2024-02-26T03:18:40;4.00;99.90
55211;DHT22;41082;52.822;6.666;2024-02-26T03:21:06;4.00;99.90
55211;DHT22;41082;52.822;6.666;2024-02-26T03:23:32;4.00;99.90
55211;DHT22;41082;52.822;6.666;2024-02-26T03:26:03;4.10;99.90
55211;DHT22;41082;52.822;6.666;2024-02-26T03:28:29;4.00;99.90
55211;DHT22;41082;52.822;6.666;2024-02-26T03:30:55;4.00;99.90
55211;DHT22;41082;52.822;6.666;2024-02-26T03:33:20;4.00;99.90
55211;DHT22;41082;52.822;6.666;2024-02-26T03:35:46;4.00;99.90
55211;DHT22;41082;52.822;6.666;2024-02-26T03:38:11;4.00;99.90
55211;DHT22;41082;52.822;6.666;2024-02-26T03:40:37;4.00;99.90
55211;DHT22;41082;52.822;6.666;2024-02-26T03:43:03;4.00;99.90
55211;DHT22;41082;52.822;6.666;2024-02-26T03:45:30;4.00;99.90
55211;DHT22;41082;52.822;6.666;2024-02-26T03:47:55;4.10;99.90
55211;DHT22;41082;52.822;6.666;2024-02-26T03:50:21;4.10;99.90
55211;DHT22;41082;52.822;6.666;2024-02-26T03:52:47;4.10;99.90
55211;DHT22;41082;52.822;6.666;2024-02-26T03:55:12;4.10;99.90
55211;DHT22;41082;52.822;6.666;2024-02-26T03:57:38;4.10;99.90
55211;DHT22;41082;52.822;6.666;2024-02-26T04:00:04;4.10;99.90
55211;DHT22;41082;52.822;6.666;2024-02-26T04:02:30;4.10;99.90
55211;DHT22;41082;52.822;6.666;2024-02-26T04:04:55;4.10;99.90
55211;DHT22;41082;52.822;6.666;2024-02-26T04:07:21;4.10;99.90
55211;DHT22;41082;52.822;6.666;2024-02-26T04:09:47;4.20;99.90
55211;DHT22;41082;52.822;6.666;2024-02-26T04:12:13;4.20;99.90
55211;DHT22;41082;52.822;6.666;2024-02-26T04:14:39;4.20;99.90
55211;DHT22;41082;52.822;6.666;2024-02-26T04:17:05;4.20;99.90
55211;DHT22;41082;52.822;6.666;2024-02-26T04:19:30;4.20;99.90
55211;DHT22;41082;52.822;6.666;2024-02-26T04:21:56;4.20;99.90
55211;DHT22;41082;52.822;6.666;2024-02-26T04:24:22;4.20;99.90
55211;DHT22;41082;52.822;6.666;2024-02-26T04:26:47;4.30;99.90
55211;DHT22;41082;52.822;6.666;2024-02-26T04:29:15;4.30;99.90
55211;DHT22;41082;52.822;6.666;2024-02-26T04:31:41;4.30;99.90
55211;DHT22;41082;52.822;6.666;2024-02-26T04:34:08;4.30;99.90
55211;DHT22;41082;52.822;6.666;2024-02-26T04:36:46;4.30;99.90
55211;DHT22;41082;52.822;6.666;2024-02-26T04:39:19;4.40;99.90
55211;DHT22;41082;52.822;6.666;2024-02-26T04:41:44;4.30;99.90
55211;DHT22;41082;52.822;6.666;2024-02-26T04:44:10;4.40;99.90
55211;DHT22;41082;52.822;6.666;2024-02-26T04:46:35;4.40;99.90
55211;DHT22;41082;52.822;6.666;2024-02-26T04:49:01;4.40;99.90
55211;DHT22;41082;52.822;6.666;2024-02-26T04:51:27;4.40;99.90
55211;DHT22;41082;52.822;6.666;2024-02-26T04:53:52;4.40;99.90
55211;DHT22;41082;52.822;6.666;2024-02-26T04:56:20;4.40;99.90
55211;DHT22;41082;52.822;6.666;2024-02-26T04:58:46;4.40;99.90
55211;DHT22;41082;52.822;6.666;2024-02-26T05:01:12;4.40;99.90
55211;DHT22;41082;52.822;6.666;2024-02-26T05:03:37;4.50;99.90
55211;DHT22;41082;52.822;6.666;2024-02-26T05:06:04;4.50;99.90
55211;DHT22;41082;52.822;6.666;2024-02-26T05:08:30;4.50;99.90
55211;DHT22;41082;52.822;6.666;2024-02-26T05:10:56;4.50;99.90
55211;DHT22;41082;52.822;6.666;2024-02-26T05:13:22;4.50;99.90
55211;DHT22;41082;52.822;6.666;2024-02-26T05:15:47;4.50;99.90
55211;DHT22;41082;52.822;6.666;2024-02-26T05:18:15;4.40;99.90
55211;DHT22;41082;52.822;6.666;2024-02-26T05:20:41;4.50;99.90
55211;DHT22;41082;52.822;6.666;2024-02-26T05:23:06;4.50;99.90
55211;DHT22;41082;52.822;6.666;2024-02-26T05:25:32;4.40;99.90
55211;DHT22;41082;52.822;6.666;2024-02-26T05:27:57;4.40;99.90
55211;DHT22;41082;52.822;6.666;2024-02-26T05:30:23;4.40;99.90
55211;DHT22;41082;52.822;6.666;2024-02-26T05:32:49;4.30;99.90
55211;DHT22;41082;52.822;6.666;2024-02-26T05:35:14;4.40;99.90
55211;DHT22;41082;52.822;6.666;2024-02-26T05:37:40;4.40;99.90
55211;DHT22;41082;52.822;6.666;2024-02-26T05:40:06;4.30;99.90
55211;DHT22;41082;52.822;6.666;2024-02-26T05:42:32;4.30;99.90
55211;DHT22;41082;52.822;6.666;2024-02-26T05:44:58;4.30;99.90
55211;DHT22;41082;52.822;6.666;2024-02-26T05:47:24;4.30;99.90
55211;DHT22;41082;52.822;6.666;2024-02-26T05:49:50;4.20;99.90
55211;DHT22;41082;52.822;6.666;2024-02-26T05:52:15;4.30;99.90
55211;DHT22;41082;52.822;6.666;2024-02-26T05:54:41;4.20;99.90
55211;DHT22;41082;52.822;6.666;2024-02-26T05:57:06;4.20;99.90
55211;DHT22;41082;52.822;6.666;2024-02-26T05:59:32;4.20;99.90
55211;DHT22;41082;52.822;6.666;2024-02-26T06:01:58;4.20;99.90
55211;DHT22;41082;52.822;6.666;2024-02-26T06:04:24;4.20;99.90
55211;DHT22;41082;52.822;6.666;2024-02-26T06:06:49;4.20;99.90
55211;DHT22;41082;52.822;6.666;2024-02-26T06:09:15;4.20;99.90
55211;DHT22;41082;52.822;6.666;2024-02-26T06:11:41;4.20;99.90
55211;DHT22;41082;52.822;6.666;2024-02-26T06:14:06;4.20;99.90
55211;DHT22;41082;52.822;6.666;2024-02-26T06:16:32;4.20;99.90
55211;DHT22;41082;52.822;6.666;2024-02-26T06:18:59;4.20;99.90
55211;DHT22;41082;52.822;6.666;2024-02-26T06:21:26;4.20;99.90
55211;DHT22;41082;52.822;6.666;2024-02-26T06:23:52;4.20;99.90
55211;DHT22;41082;52.822;6.666;2024-02-26T06:26:18;4.10;99.90
55211;DHT22;41082;52.822;6.666;2024-02-26T06:28:43;4.20;99.90
55211;DHT22;41082;52.822;6.666;2024-02-26T06:31:10;4.10;99.90
55211;DHT22;41082;52.822;6.666;2024-02-26T06:33:35;4.20;99.90
55211;DHT22;41082;52.822;6.666;2024-02-26T06:36:01;4.20;99.90
55211;DHT22;41082;52.822;6.666;2024-02-26T06:38:27;4.10;99.90
55211;DHT22;41082;52.822;6.666;2024-02-26T06:40:53;4.20;99.90
55211;DHT22;41082;52.822;6.666;2024-02-26T06:43:18;4.20;99.90
55211;DHT22;41082;52.822;6.666;2024-02-26T06:45:44;4.10;99.90
55211;DHT22;41082;52.822;6.666;2024-02-26T06:48:10;4.10;99.90
55211;DHT22;41082;52.822;6.666;2024-02-26T06:50:36;4.20;99.90
55211;DHT22;41082;52.822;6.666;2024-02-26T06:53:02;4.10;99.90
55211;DHT22;41082;52.822;6.666;2024-02-26T06:55:27;4.20;99.90
55211;DHT22;41082;52.822;6.666;2024-02-26T06:57:53;4.10;99.90
55211;DHT22;41082;52.822;6.666;2024-02-26T07:00:19;4.10;99.90
55211;DHT22;41082;52.822;6.666;2024-02-26T07:02:45;4.10;99.90
55211;DHT22;41082;52.822;6.666;2024-02-26T07:05:10;4.10;99.90
55211;DHT22;41082;52.822;6.666;2024-02-26T07:07:36;4.20;99.90
55211;DHT22;41082;52.822;6.666;2024-02-26T07:10:02;4.10;99.90
55211;DHT22;41082;52.822;6.666;2024-02-26T07:12:30;4.20;99.90
55211;DHT22;41082;52.822;6.666;2024-02-26T07:14:55;4.10;99.90
55211;DHT22;41082;52.822;6.666;2024-02-26T07:17:21;4.10;99.90
55211;DHT22;41082;52.822;6.666;2024-02-26T07:19:47;4.20;99.90
55211;DHT22;41082;52.822;6.666;2024-02-26T07:22:13;4.20;99.90
55211;DHT22;41082;52.822;6.666;2024-02-26T07:24:39;4.10;99.90
55211;DHT22;41082;52.822;6.666;2024-02-26T07:27:05;4.20;99.90
55211;DHT22;41082;52.822;6.666;2024-02-26T07:29:30;4.20;99.90
55211;DHT22;41082;52.822;6.666;2024-02-26T07:31:56;4.20;99.90
55211;DHT22;41082;52.822;6.666;2024-02-26T07:34:22;4.20;99.90
55211;DHT22;41082;52.822;6.666;2024-02-26T07:36:53;4.20;99.90
55211;DHT22;41082;52.822;6.666;2024-02-26T07:39:19;4.30;99.90
55211;DHT22;41082;52.822;6.666;2024-02-26T07:41:45;4.20;99.90
55211;DHT22;41082;52.822;6.666;2024-02-26T07:44:13;4.20;99.90
55211;DHT22;41082;52.822;6.666;2024-02-26T07:46:39;4.30;99.90
55211;DHT22;41082;52.822;6.666;2024-02-26T07:49:05;4.20;99.90
55211;DHT22;41082;52.822;6.666;2024-02-26T07:51:30;4.30;99.90
55211;DHT22;41082;52.822;6.666;2024-02-26T07:53:56;4.30;99.90
55211;DHT22;41082;52.822;6.666;2024-02-26T07:56:22;4.30;99.90
55211;DHT22;41082;52.822;6.666;2024-02-26T07:58:48;4.30;99.90
55211;DHT22;41082;52.822;6.666;2024-02-26T08:01:14;4.30;99.90
55211;DHT22;41082;52.822;6.666;2024-02-26T08:03:40;4.30;99.90
55211;DHT22;41082;52.822;6.666;2024-02-26T08:06:07;4.40;99.90
55211;DHT22;41082;52.822;6.666;2024-02-26T08:08:33;4.30;99.90
55211;DHT22;41082;52.822;6.666;2024-02-26T08:10:59;4.40;99.90
55211;DHT22;41082;52.822;6.666;2024-02-26T08:13:24;4.30;99.90
55211;DHT22;41082;52.822;6.666;2024-02-26T08:15:51;4.40;99.90
55211;DHT22;41082;52.822;6.666;2024-02-26T08:18:17;4.40;99.90
55211;DHT22;41082;52.822;6.666;2024-02-26T08:20:43;4.40;99.90
55211;DHT22;41082;52.822;6.666;2024-02-26T08:23:08;4.50;99.90
55211;DHT22;41082;52.822;6.666;2024-02-26T08:25:34;4.50;99.90
55211;DHT22;41082;52.822;6.666;2024-02-26T08:27:59;4.50;99.90
55211;DHT22;41082;52.822;6.666;2024-02-26T08:30:25;4.50;99.90
55211;DHT22;41082;52.822;6.666;2024-02-26T08:32:51;4.50;99.90
55211;DHT22;41082;52.822;6.666;2024-02-26T08:35:18;4.50;99.90
55211;DHT22;41082;52.822;6.666;2024-02-26T08:37:47;4.50;99.90
55211;DHT22;41082;52.822;6.666;2024-02-26T08:40:13;4.60;99.90
55211;DHT22;41082;52.822;6.666;2024-02-26T08:42:39;4.60;99.90
55211;DHT22;41082;52.822;6.666;2024-02-26T08:45:05;4.60;99.90
55211;DHT22;41082;52.822;6.666;2024-02-26T08:47:31;4.60;99.90
55211;DHT22;41082;52.822;6.666;2024-02-26T08:49:58;4.60;99.90
55211;DHT22;41082;52.822;6.666;2024-02-26T08:52:23;4.70;99.90
55211;DHT22;41082;52.822;6.666;2024-02-26T08:54:49;4.70;99.90
55211;DHT22;41082;52.822;6.666;2024-02-26T08:57:15;4.70;99.90
55211;DHT22;41082;52.822;6.666;2024-02-26T08:59:41;4.80;99.90
55211;DHT22;41082;52.822;6.666;2024-02-26T09:02:07;4.80;99.90
55211;DHT22;41082;52.822;6.666;2024-02-26T09:04:34;4.80;99.90
55211;DHT22;41082;52.822;6.666;2024-02-26T09:07:01;4.90;99.90
55211;DHT22;41082;52.822;6.666;2024-02-26T09:09:27;4.90;99.90
55211;DHT22;41082;52.822;6.666;2024-02-26T09:11:53;4.90;99.90
55211;DHT22;41082;52.822;6.666;2024-02-26T09:14:20;5.00;99.90
55211;DHT22;41082;52.822;6.666;2024-02-26T09:16:46;5.00;99.90
55211;DHT22;41082;52.822;6.666;2024-02-26T09:19:14;5.00;99.90
55211;DHT22;41082;52.822;6.666;2024-02-26T09:21:46;5.00;99.90
55211;DHT22;41082;52.822;6.666;2024-02-26T09:24:12;5.00;99.90
55211;DHT22;41082;52.822;6.666;2024-02-26T09:26:38;5.00;99.90
55211;DHT22;41082;52.822;6.666;2024-02-26T09:29:04;5.10;99.90
55211;DHT22;41082;52.822;6.666;2024-02-26T09:31:31;5.10;99.90
55211;DHT22;41082;52.822;6.666;2024-02-26T09:33:56;5.10;99.90
55211;DHT22;41082;52.822;6.666;2024-02-26T09:36:22;5.10;99.90
55211;DHT22;41082;52.822;6.666;2024-02-26T09:38:48;5.10;99.90
55211;DHT22;41082;52.822;6.666;2024-02-26T09:41:14;5.10;99.90
55211;DHT22;41082;52.822;6.666;2024-02-26T09:43:44;5.10;99.90
55211;DHT22;41082;52.822;6.666;2024-02-26T09:46:10;5.10;99.90
55211;DHT22;41082;52.822;6.666;2024-02-26T09:48:37;5.10;99.90
55211;DHT22;41082;52.822;6.666;2024-02-26T09:51:03;5.10;99.90
55211;DHT22;41082;52.822;6.666;2024-02-26T09:53:30;5.20;99.90
55211;DHT22;41082;52.822;6.666;2024-02-26T09:55:58;5.10;99.90
55211;DHT22;41082;52.822;6.666;2024-02-26T09:58:24;5.20;99.90
55211;DHT22;41082;52.822;6.666;2024-02-26T10:00:55;5.20;99.90
55211;DHT22;41082;52.822;6.666;2024-02-26T10:03:23;5.20;99.90
55211;DHT22;41082;52.822;6.666;2024-02-26T10:05:51;5.30;99.90
55211;DHT22;41082;52.822;6.666;2024-02-26T10:08:21;5.20;99.90
55211;DHT22;41082;52.822;6.666;2024-02-26T10:10:48;5.20;99.90
55211;DHT22;41082;52.822;6.666;2024-02-26T10:13:14;5.20;99.90
55211;DHT22;41082;52.822;6.666;2024-02-26T10:15:40;5.30;99.90
55211;DHT22;41082;52.822;6.666;2024-02-26T10:18:06;5.30;99.90
55211;DHT22;41082;52.822;6.666;2024-02-26T10:20:32;5.30;99.90
55211;DHT22;41082;52.822;6.666;2024-02-26T10:22:58;5.30;99.90
55211;DHT22;41082;52.822;6.666;2024-02-26T10:25:24;5.40;99.90
55211;DHT22;41082;52.822;6.666;2024-02-26T10:27:49;5.30;99.90
55211;DHT22;41082;52.822;6.666;2024-02-26T10:30:20;5.40;99.90
55211;DHT22;41082;52.822;6.666;2024-02-26T10:32:47;5.40;99.90
55211;DHT22;41082;52.822;6.666;2024-02-26T10:35:14;5.40;99.90
55211;DHT22;41082;52.822;6.666;2024-02-26T10:37:41;5.50;99.90
55211;DHT22;41082;52.822;6.666;2024-02-26T10:40:13;5.50;99.90
55211;DHT22;41082;52.822;6.666;2024-02-26T10:42:40;5.50;99.90
55211;DHT22;41082;52.822;6.666;2024-02-26T10:45:06;5.60;99.90
55211;DHT22;41082;52.822;6.666;2024-02-26T10:47:33;5.60;99.90
55211;DHT22;41082;52.822;6.666;2024-02-26T10:50:01;5.70;99.90
55211;DHT22;41082;52.822;6.666;2024-02-26T10:52:27;5.70;99.90
55211;DHT22;41082;52.822;6.666;2024-02-26T10:54:56;5.70;99.90
55211;DHT22;41082;52.822;6.666;2024-02-26T10:57:27;5.70;99.90
55211;DHT22;41082;52.822;6.666;2024-02-26T10:59:55;5.70;99.90
55211;DHT22;41082;52.822;6.666;2024-02-26T11:02:21;5.70;99.90
55211;DHT22;41082;52.822;6.666;2024-02-26T11:04:47;5.80;99.90
55211;DHT22;41082;52.822;6.666;2024-02-26T11:07:14;5.80;99.90
55211;DHT22;41082;52.822;6.666;2024-02-26T11:09:40;5.90;99.90
55211;DHT22;41082;52.822;6.666;2024-02-26T11:12:11;5.90;99.90
55211;DHT22;41082;52.822;6.666;2024-02-26T11:14:43;5.90;99.90
55211;DHT22;41082;52.822;6.666;2024-02-26T11:17:09;6.00;99.90
55211;DHT22;41082;52.822;6.666;2024-02-26T11:19:38;6.00;99.90
55211;DHT22;41082;52.822;6.666;2024-02-26T11:22:04;6.00;99.90
55211;DHT22;41082;52.822;6.666;2024-02-26T11:24:30;6.10;99.90
55211;DHT22;41082;52.822;6.666;2024-02-26T11:27:01;6.10;99.90
55211;DHT22;41082;52.822;6.666;2024-02-26T11:29:38;6.10;99.90
55211;DHT22;41082;52.822;6.666;2024-02-26T11:32:06;6.10;99.90
55211;DHT22;41082;52.822;6.666;2024-02-26T11:34:32;6.10;99.90
55211;DHT22;41082;52.822;6.666;2024-02-26T11:37:09;6.20;99.90
55211;DHT22;41082;52.822;6.666;2024-02-26T11:39:47;6.20;99.90
55211;DHT22;41082;52.822;6.666;2024-02-26T11:42:16;6.20;99.90
55211;DHT22;41082;52.822;6.666;2024-02-26T11:44:42;6.20;99.90
55211;DHT22;41082;52.822;6.666;2024-02-26T11:49:37;6.30;99.90
55211;DHT22;41082;52.822;6.666;2024-02-26T11:52:07;6.30;99.90
55211;DHT22;41082;52.822;6.666;2024-02-26T11:54:50;6.30;99.90
55211;DHT22;41082;52.822;6.666;2024-02-26T11:57:58;6.30;99.90
55211;DHT22;41082;52.822;6.666;2024-02-26T12:00:17;6.30;99.90
55211;DHT22;41082;52.822;6.666;2024-02-26T12:02:52;6.40;99.90
55211;DHT22;41082;52.822;6.666;2024-02-26T12:05:24;6.30;99.90
55211;DHT22;41082;52.822;6.666;2024-02-26T12:07:53;6.40;99.90
55211;DHT22;41082;52.822;6.666;2024-02-26T12:10:28;6.40;99.90
55211;DHT22;41082;52.822;6.666;2024-02-26T12:13:02;6.30;99.90
55211;DHT22;41082;52.822;6.666;2024-02-26T12:15:32;6.40;99.90
55211;DHT22;41082;52.822;6.666;2024-02-26T12:18:01;6.40;99.90
55211;DHT22;41082;52.822;6.666;2024-02-26T12:20:27;6.40;99.90
55211;DHT22;41082;52.822;6.666;2024-02-26T12:22:54;6.40;99.90
55211;DHT22;41082;52.822;6.666;2024-02-26T12:25:26;6.40;99.90
55211;DHT22;41082;52.822;6.666;2024-02-26T12:27:55;6.50;99.90
55211;DHT22;41082;52.822;6.666;2024-02-26T12:30:22;6.50;99.90
55211;DHT22;41082;52.822;6.666;2024-02-26T12:32:49;6.50;99.90
55211;DHT22;41082;52.822;6.666;2024-02-26T12:35:15;6.50;99.90
55211;DHT22;41082;52.822;6.666;2024-02-26T12:37:42;6.50;99.90
55211;DHT22;41082;52.822;6.666;2024-02-26T12:40:08;6.50;99.90
55211;DHT22;41082;52.822;6.666;2024-02-26T12:42:35;6.50;99.90
55211;DHT22;41082;52.822;6.666;2024-02-26T12:45:11;6.50;99.90
55211;DHT22;41082;52.822;6.666;2024-02-26T12:47:41;6.50;99.90
55211;DHT22;41082;52.822;6.666;2024-02-26T12:50:08;6.50;99.90
55211;DHT22;41082;52.822;6.666;2024-02-26T12:52:36;6.50;99.90
55211;DHT22;41082;52.822;6.666;2024-02-26T12:55:03;6.50;99.90
55211;DHT22;41082;52.822;6.666;2024-02-26T12:57:32;6.60;99.90
55211;DHT22;41082;52.822;6.666;2024-02-26T13:00:02;6.60;99.90
55211;DHT22;41082;52.822;6.666;2024-02-26T13:02:30;6.50;99.90
55211;DHT22;41082;52.822;6.666;2024-02-26T13:04:57;6.50;99.90
55211;DHT22;41082;52.822;6.666;2024-02-26T13:07:23;6.50;99.90
55211;DHT22;41082;52.822;6.666;2024-02-26T13:09:49;6.50;99.90
55211;DHT22;41082;52.822;6.666;2024-02-26T13:12:16;6.50;99.90
55211;DHT22;41082;52.822;6.666;2024-02-26T13:14:42;6.50;99.90
55211;DHT22;41082;52.822;6.666;2024-02-26T13:17:08;6.50;99.90
55211;DHT22;41082;52.822;6.666;2024-02-26T13:19:34;6.50;99.90
55211;DHT22;41082;52.822;6.666;2024-02-26T13:22:06;6.50;99.90
55211;DHT22;41082;52.822;6.666;2024-02-26T13:24:35;6.50;99.90
55211;DHT22;41082;52.822;6.666;2024-02-26T13:27:02;6.50;99.90
55211;DHT22;41082;52.822;6.666;2024-02-26T13:29:30;6.50;99.90
55211;DHT22;41082;52.822;6.666;2024-02-26T13:31:57;6.50;99.90
55211;DHT22;41082;52.822;6.666;2024-02-26T13:34:24;6.50;99.90
55211;DHT22;41082;52.822;6.666;2024-02-26T13:36:51;6.40;99.90
55211;DHT22;41082;52.822;6.666;2024-02-26T13:39:23;6.50;99.90
55211;DHT22;41082;52.822;6.666;2024-02-26T13:41:50;6.40;99.90
55211;DHT22;41082;52.822;6.666;2024-02-26T13:44:16;6.40;99.90
55211;DHT22;41082;52.822;6.666;2024-02-26T13:46:42;6.40;99.90
55211;DHT22;41082;52.822;6.666;2024-02-26T13:49:09;6.40;99.90
55211;DHT22;41082;52.822;6.666;2024-02-26T13:51:34;6.40;99.90
55211;DHT22;41082;52.822;6.666;2024-02-26T13:54:01;6.40;99.90
55211;DHT22;41082;52.822;6.666;2024-02-26T13:56:27;6.40;99.90
55211;DHT22;41082;52.822;6.666;2024-02-26T13:58:53;6.40;99.90
55211;DHT22;41082;52.822;6.666;2024-02-26T14:01:19;6.40;99.90
55211;DHT22;41082;52.822;6.666;2024-02-26T14:03:45;6.30;99.90
55211;DHT22;41082;52.822;6.666;2024-02-26T14:06:11;6.30;99.90
55211;DHT22;41082;52.822;6.666;2024-02-26T14:08:37;6.40;99.90
55211;DHT22;41082;52.822;6.666;2024-02-26T14:11:02;6.30;99.90
55211;DHT22;41082;52.822;6.666;2024-02-26T14:13:28;6.30;99.90
55211;DHT22;41082;52.822;6.666;2024-02-26T14:15:54;6.30;99.90
55211;DHT22;41082;52.822;6.666;2024-02-26T14:18:20;6.30;99.90
55211;DHT22;41082;52.822;6.666;2024-02-26T14:20:45;6.30;99.90
55211;DHT22;41082;52.822;6.666;2024-02-26T14:23:11;6.30;99.90
55211;DHT22;41082;52.822;6.666;2024-02-26T14:25:36;6.20;99.90
55211;DHT22;41082;52.822;6.666;2024-02-26T14:28:03;6.20;99.90
55211;DHT22;41082;52.822;6.666;2024-02-26T14:30:29;6.20;99.90
55211;DHT22;41082;52.822;6.666;2024-02-26T14:32:54;6.20;99.90
55211;DHT22;41082;52.822;6.666;2024-02-26T14:35:20;6.20;99.90
55211;DHT22;41082;52.822;6.666;2024-02-26T14:37:46;6.20;99.90
55211;DHT22;41082;52.822;6.666;2024-02-26T14:40:13;6.20;99.90
55211;DHT22;41082;52.822;6.666;2024-02-26T14:42:40;6.20;99.90
55211;DHT22;41082;52.822;6.666;2024-02-26T14:45:06;6.10;99.90
55211;DHT22;41082;52.822;6.666;2024-02-26T14:47:34;6.10;99.90
55211;DHT22;41082;52.822;6.666;2024-02-26T14:50:00;6.00;99.90
55211;DHT22;41082;52.822;6.666;2024-02-26T14:52:26;6.10;99.90
55211;DHT22;41082;52.822;6.666;2024-02-26T14:54:52;6.10;99.90
55211;DHT22;41082;52.822;6.666;2024-02-26T14:57:18;6.10;99.90
55211;DHT22;41082;52.822;6.666;2024-02-26T14:59:44;6.10;99.90
55211;DHT22;41082;52.822;6.666;2024-02-26T15:02:09;6.10;99.90
55211;DHT22;41082;52.822;6.666;2024-02-26T15:04:36;6.00;99.90
55211;DHT22;41082;52.822;6.666;2024-02-26T15:07:02;6.10;99.90
55211;DHT22;41082;52.822;6.666;2024-02-26T15:09:28;6.00;99.90
55211;DHT22;41082;52.822;6.666;2024-02-26T15:11:53;6.00;99.90
55211;DHT22;41082;52.822;6.666;2024-02-26T15:14:19;5.90;99.90
55211;DHT22;41082;52.822;6.666;2024-02-26T15:16:44;5.80;99.90
55211;DHT22;41082;52.822;6.666;2024-02-26T15:19:10;5.80;99.90
55211;DHT22;41082;52.822;6.666;2024-02-26T15:21:45;5.90;99.90
55211;DHT22;41082;52.822;6.666;2024-02-26T15:24:11;5.80;99.90
55211;DHT22;41082;52.822;6.666;2024-02-26T15:26:38;5.90;99.90
55211;DHT22;41082;52.822;6.666;2024-02-26T15:29:05;5.90;99.90
55211;DHT22;41082;52.822;6.666;2024-02-26T15:31:31;5.80;99.90
55211;DHT22;41082;52.822;6.666;2024-02-26T15:33:57;5.80;99.90
55211;DHT22;41082;52.822;6.666;2024-02-26T15:36:22;5.90;99.90
55211;DHT22;41082;52.822;6.666;2024-02-26T15:38:48;5.90;99.90
55211;DHT22;41082;52.822;6.666;2024-02-26T15:41:14;5.90;99.90
55211;DHT22;41082;52.822;6.666;2024-02-26T15:43:40;5.90;99.90